sensor_id;sensor_type;location;lat;lon;timestamp;P1;durP1;ratioP1;P2;durP2;ratioP2
72275;SDS011;61204;49.980;8.358;2022-09-06T00:01:06;6.75;;;2.03;;
72275;SDS011;61204;49.980;8.358;2022-09-06T00:03:40;4.80;;;1.90;;
72275;SDS011;61204;49.980;8.358;2022-09-06T00:06:11;4.65;;;2.35;;
72275;SDS011;61204;49.980;8.358;2022-09-06T00:08:42;4.20;;;1.90;;
72275;SDS011;61204;49.980;8.358;2022-09-06T00:11:10;6.20;;;2.15;;
72275;SDS011;61204;49.980;8.358;2022-09-06T00:13:39;3.08;;;1.50;;
72275;SDS011;61204;49.980;8.358;2022-09-06T00:16:06;3.63;;;2.17;;
72275;SDS011;61204;49.980;8.358;2022-09-06T00:18:43;5.38;;;2.22;;
72275;SDS011;61204;49.980;8.358;2022-09-06T00:21:18;4.00;;;2.03;;
72275;SDS011;61204;49.980;8.358;2022-09-06T00:23:53;2.72;;;1.75;;
72275;SDS011;61204;49.980;8.358;2022-09-06T00:26:22;3.65;;;1.98;;
72275;SDS011;61204;49.980;8.358;2022-09-06T00:28:49;4.10;;;1.77;;
72275;SDS011;61204;49.980;8.358;2022-09-06T00:31:22;4.10;;;1.83;;
72275;SDS011;61204;49.980;8.358;2022-09-06T00:33:51;3.58;;;1.75;;
72275;SDS011;61204;49.980;8.358;2022-09-06T00:36:18;3.10;;;2.10;;
72275;SDS011;61204;49.980;8.358;2022-09-06T00:38:46;3.72;;;1.95;;
72275;SDS011;61204;49.980;8.358;2022-09-06T00:41:13;4.30;;;2.08;;
72275;SDS011;61204;49.980;8.358;2022-09-06T00:43:41;6.32;;;2.20;;
72275;SDS011;61204;49.980;8.358;2022-09-06T00:46:12;8.70;;;2.28;;
72275;SDS011;61204;49.980;8.358;2022-09-06T00:48:57;3.35;;;2.03;;
72275;SDS011;61204;49.980;8.358;2022-09-06T00:51:54;5.20;;;2.33;;
72275;SDS011;61204;49.980;8.358;2022-09-06T00:54:31;5.40;;;2.00;;
72275;SDS011;61204;49.980;8.358;2022-09-06T00:57:00;3.72;;;2.35;;
72275;SDS011;61204;49.980;8.358;2022-09-06T00:59:28;7.07;;;2.33;;
72275;SDS011;61204;49.980;8.358;2022-09-06T01:01:58;4.05;;;2.05;;
72275;SDS011;61204;49.980;8.358;2022-09-06T01:04:26;5.22;;;2.20;;
72275;SDS011;61204;49.980;8.358;2022-09-06T01:25:32;2.45;;;2.05;;
72275;SDS011;61204;49.980;8.358;2022-09-06T01:36:58;5.97;;;2.20;;
72275;SDS011;61204;49.980;8.358;2022-09-06T01:39:43;53.75;;;5.03;;
72275;SDS011;61204;49.980;8.358;2022-09-06T01:42:22;44.10;;;4.70;;
72275;SDS011;61204;49.980;8.358;2022-09-06T01:45:03;13.27;;;2.20;;
72275;SDS011;61204;49.980;8.358;2022-09-06T01:48:14;5.13;;;1.83;;
72275;SDS011;61204;49.980;8.358;2022-09-06T02:00:08;5.93;;;1.85;;
72275;SDS011;61204;49.980;8.358;2022-09-06T02:02:49;6.93;;;1.90;;
72275;SDS011;61204;49.980;8.358;2022-09-06T02:06:02;2.67;;;1.63;;
72275;SDS011;61204;49.980;8.358;2022-09-06T02:08:40;3.28;;;1.35;;
72275;SDS011;61204;49.980;8.358;2022-09-06T02:11:14;6.00;;;1.40;;
72275;SDS011;61204;49.980;8.358;2022-09-06T02:13:51;4.40;;;1.15;;
72275;SDS011;61204;49.980;8.358;2022-09-06T02:16:33;5.13;;;1.27;;
72275;SDS011;61204;49.980;8.358;2022-09-06T02:19:12;1.48;;;0.82;;
72275;SDS011;61204;49.980;8.358;2022-09-06T02:21:48;3.28;;;1.23;;
72275;SDS011;61204;49.980;8.358;2022-09-06T02:24:21;1.63;;;0.85;;
72275;SDS011;61204;49.980;8.358;2022-09-06T02:26:55;1.90;;;1.10;;
72275;SDS011;61204;49.980;8.358;2022-09-06T02:29:22;5.22;;;1.30;;
72275;SDS011;61204;49.980;8.358;2022-09-06T02:32:07;3.28;;;1.30;;
72275;SDS011;61204;49.980;8.358;2022-09-06T02:34:51;3.55;;;1.30;;
72275;SDS011;61204;49.980;8.358;2022-09-06T02:37:24;2.00;;;1.15;;
72275;SDS011;61204;49.980;8.358;2022-09-06T02:39:53;4.72;;;1.65;;
72275;SDS011;61204;49.980;8.358;2022-09-06T02:42:19;3.30;;;1.10;;
72275;SDS011;61204;49.980;8.358;2022-09-06T02:44:48;2.17;;;1.00;;
72275;SDS011;61204;49.980;8.358;2022-09-06T02:47:14;4.10;;;1.00;;
72275;SDS011;61204;49.980;8.358;2022-09-06T02:49:40;1.75;;;0.93;;
72275;SDS011;61204;49.980;8.358;2022-09-06T02:52:06;2.13;;;0.95;;
72275;SDS011;61204;49.980;8.358;2022-09-06T02:54:32;1.77;;;1.10;;
72275;SDS011;61204;49.980;8.358;2022-09-06T02:56:58;1.25;;;1.15;;
72275;SDS011;61204;49.980;8.358;2022-09-06T02:59:24;2.10;;;1.30;;
72275;SDS011;61204;49.980;8.358;2022-09-06T03:01:49;2.45;;;1.23;;
72275;SDS011;61204;49.980;8.358;2022-09-06T03:04:15;5.03;;;1.35;;
72275;SDS011;61204;49.980;8.358;2022-09-06T03:06:41;2.42;;;1.42;;
72275;SDS011;61204;49.980;8.358;2022-09-06T03:09:07;1.77;;;1.35;;
72275;SDS011;61204;49.980;8.358;2022-09-06T03:11:34;2.22;;;1.30;;
72275;SDS011;61204;49.980;8.358;2022-09-06T03:14:01;4.07;;;1.42;;
72275;SDS011;61204;49.980;8.358;2022-09-06T03:16:26;3.72;;;1.45;;
72275;SDS011;61204;49.980;8.358;2022-09-06T03:18:52;4.80;;;1.58;;
72275;SDS011;61204;49.980;8.358;2022-09-06T03:21:18;4.10;;;1.92;;
72275;SDS011;61204;49.980;8.358;2022-09-06T03:23:44;3.10;;;2.00;;
72275;SDS011;61204;49.980;8.358;2022-09-06T03:26:12;2.22;;;1.73;;
72275;SDS011;61204;49.980;8.358;2022-09-06T03:28:37;4.45;;;1.98;;
72275;SDS011;61204;49.980;8.358;2022-09-06T03:31:03;1.70;;;1.58;;
72275;SDS011;61204;49.980;8.358;2022-09-06T03:33:29;1.85;;;1.60;;
72275;SDS011;61204;49.980;8.358;2022-09-06T03:35:58;2.22;;;1.63;;
72275;SDS011;61204;49.980;8.358;2022-09-06T03:38:27;2.00;;;1.42;;
72275;SDS011;61204;49.980;8.358;2022-09-06T03:40:54;4.97;;;1.60;;
72275;SDS011;61204;49.980;8.358;2022-09-06T03:43:22;4.38;;;1.90;;
72275;SDS011;61204;49.980;8.358;2022-09-06T03:45:52;3.83;;;1.70;;
72275;SDS011;61204;49.980;8.358;2022-09-06T03:48:24;3.22;;;1.80;;
72275;SDS011;61204;49.980;8.358;2022-09-06T03:50:54;4.07;;;1.98;;
72275;SDS011;61204;49.980;8.358;2022-09-06T03:53:23;5.55;;;2.17;;
72275;SDS011;61204;49.980;8.358;2022-09-06T03:55:52;4.72;;;2.30;;
72275;SDS011;61204;49.980;8.358;2022-09-06T03:58:22;2.63;;;2.13;;
72275;SDS011;61204;49.980;8.358;2022-09-06T04:01:13;3.13;;;1.90;;
72275;SDS011;61204;49.980;8.358;2022-09-06T04:03:38;4.53;;;1.90;;
72275;SDS011;61204;49.980;8.358;2022-09-06T04:06:04;4.38;;;2.17;;
72275;SDS011;61204;49.980;8.358;2022-09-06T04:08:32;5.65;;;1.92;;
72275;SDS011;61204;49.980;8.358;2022-09-06T04:10:59;2.25;;;1.92;;
72275;SDS011;61204;49.980;8.358;2022-09-06T04:13:26;2.75;;;1.88;;
72275;SDS011;61204;49.980;8.358;2022-09-06T04:15:54;6.03;;;2.13;;
72275;SDS011;61204;49.980;8.358;2022-09-06T04:18:21;3.13;;;1.80;;
72275;SDS011;61204;49.980;8.358;2022-09-06T04:20:49;3.95;;;2.13;;
72275;SDS011;61204;49.980;8.358;2022-09-06T04:23:18;4.15;;;1.90;;
72275;SDS011;61204;49.980;8.358;2022-09-06T04:25:45;2.83;;;1.92;;
72275;SDS011;61204;49.980;8.358;2022-09-06T04:28:14;3.55;;;2.17;;
72275;SDS011;61204;49.980;8.358;2022-09-06T04:30:42;4.38;;;2.10;;
72275;SDS011;61204;49.980;8.358;2022-09-06T04:33:16;3.90;;;2.00;;
72275;SDS011;61204;49.980;8.358;2022-09-06T04:35:47;2.55;;;2.10;;
72275;SDS011;61204;49.980;8.358;2022-09-06T04:38:14;4.45;;;1.83;;
72275;SDS011;61204;49.980;8.358;2022-09-06T04:40:41;4.88;;;1.80;;
72275;SDS011;61204;49.980;8.358;2022-09-06T04:43:07;3.92;;;1.90;;
72275;SDS011;61204;49.980;8.358;2022-09-06T04:45:33;2.45;;;1.88;;
72275;SDS011;61204;49.980;8.358;2022-09-06T04:48:00;2.95;;;2.30;;
72275;SDS011;61204;49.980;8.358;2022-09-06T04:50:26;2.70;;;2.00;;
72275;SDS011;61204;49.980;8.358;2022-09-06T04:52:52;2.75;;;1.88;;
72275;SDS011;61204;49.980;8.358;2022-09-06T04:55:17;3.80;;;1.98;;
72275;SDS011;61204;49.980;8.358;2022-09-06T04:57:43;3.40;;;1.77;;
72275;SDS011;61204;49.980;8.358;2022-09-06T05:00:10;6.38;;;2.60;;
72275;SDS011;61204;49.980;8.358;2022-09-06T05:02:38;7.68;;;2.47;;
72275;SDS011;61204;49.980;8.358;2022-09-06T05:05:04;3.08;;;2.13;;
72275;SDS011;61204;49.980;8.358;2022-09-06T05:07:30;4.95;;;2.47;;
72275;SDS011;61204;49.980;8.358;2022-09-06T05:09:56;2.28;;;1.85;;
72275;SDS011;61204;49.980;8.358;2022-09-06T05:12:21;3.05;;;2.15;;
72275;SDS011;61204;49.980;8.358;2022-09-06T05:14:47;3.15;;;2.10;;
72275;SDS011;61204;49.980;8.358;2022-09-06T05:17:12;5.65;;;2.00;;
72275;SDS011;61204;49.980;8.358;2022-09-06T05:19:39;4.35;;;1.92;;
72275;SDS011;61204;49.980;8.358;2022-09-06T05:22:05;2.65;;;1.85;;
72275;SDS011;61204;49.980;8.358;2022-09-06T05:24:31;3.72;;;1.85;;
72275;SDS011;61204;49.980;8.358;2022-09-06T05:26:56;5.10;;;2.10;;
72275;SDS011;61204;49.980;8.358;2022-09-06T05:29:23;6.40;;;1.95;;
72275;SDS011;61204;49.980;8.358;2022-09-06T05:31:49;2.20;;;1.70;;
72275;SDS011;61204;49.980;8.358;2022-09-06T05:34:15;1.92;;;1.63;;
72275;SDS011;61204;49.980;8.358;2022-09-06T05:36:40;1.80;;;1.45;;
72275;SDS011;61204;49.980;8.358;2022-09-06T05:39:09;3.60;;;1.83;;
72275;SDS011;61204;49.980;8.358;2022-09-06T05:41:34;4.47;;;1.67;;
72275;SDS011;61204;49.980;8.358;2022-09-06T05:44:00;2.20;;;1.83;;
72275;SDS011;61204;49.980;8.358;2022-09-06T05:46:27;1.60;;;1.50;;
72275;SDS011;61204;49.980;8.358;2022-09-06T05:48:54;2.22;;;1.52;;
72275;SDS011;61204;49.980;8.358;2022-09-06T05:51:28;2.25;;;1.33;;
72275;SDS011;61204;49.980;8.358;2022-09-06T05:53:55;2.13;;;1.35;;
72275;SDS011;61204;49.980;8.358;2022-09-06T05:56:20;3.88;;;1.60;;
72275;SDS011;61204;49.980;8.358;2022-09-06T05:58:46;3.65;;;2.38;;
72275;SDS011;61204;49.980;8.358;2022-09-06T06:01:19;3.13;;;1.50;;
72275;SDS011;61204;49.980;8.358;2022-09-06T06:03:54;4.15;;;1.70;;
72275;SDS011;61204;49.980;8.358;2022-09-06T06:06:26;4.43;;;1.70;;
72275;SDS011;61204;49.980;8.358;2022-09-06T06:08:56;2.88;;;1.42;;
72275;SDS011;61204;49.980;8.358;2022-09-06T06:11:23;1.60;;;1.45;;
72275;SDS011;61204;49.980;8.358;2022-09-06T06:13:50;2.60;;;1.80;;
72275;SDS011;61204;49.980;8.358;2022-09-06T06:16:19;6.03;;;1.95;;
72275;SDS011;61204;49.980;8.358;2022-09-06T06:18:47;2.50;;;1.83;;
72275;SDS011;61204;49.980;8.358;2022-09-06T06:23:50;7.22;;;2.53;;
72275;SDS011;61204;49.980;8.358;2022-09-06T06:26:20;9.48;;;2.60;;
72275;SDS011;61204;49.980;8.358;2022-09-06T06:28:47;5.05;;;2.50;;
72275;SDS011;61204;49.980;8.358;2022-09-06T06:31:14;2.90;;;2.20;;
72275;SDS011;61204;49.980;8.358;2022-09-06T06:33:40;5.47;;;2.15;;
72275;SDS011;61204;49.980;8.358;2022-09-06T06:36:17;2.72;;;1.50;;
72275;SDS011;61204;49.980;8.358;2022-09-06T06:38:46;2.83;;;1.65;;
72275;SDS011;61204;49.980;8.358;2022-09-06T06:41:17;2.88;;;1.77;;
72275;SDS011;61204;49.980;8.358;2022-09-06T06:43:51;4.75;;;1.60;;
72275;SDS011;61204;49.980;8.358;2022-09-06T06:46:29;2.72;;;1.75;;
72275;SDS011;61204;49.980;8.358;2022-09-06T06:49:01;5.18;;;2.33;;
72275;SDS011;61204;49.980;8.358;2022-09-06T06:51:28;6.22;;;2.17;;
72275;SDS011;61204;49.980;8.358;2022-09-06T06:53:57;4.53;;;2.60;;
72275;SDS011;61204;49.980;8.358;2022-09-06T06:58:57;4.07;;;2.05;;
72275;SDS011;61204;49.980;8.358;2022-09-06T07:01:28;3.60;;;2.13;;
72275;SDS011;61204;49.980;8.358;2022-09-06T07:03:59;6.20;;;2.10;;
72275;SDS011;61204;49.980;8.358;2022-09-06T07:06:25;4.00;;;2.20;;
72275;SDS011;61204;49.980;8.358;2022-09-06T07:08:52;7.45;;;2.58;;
72275;SDS011;61204;49.980;8.358;2022-09-06T07:11:21;3.05;;;1.85;;
72275;SDS011;61204;49.980;8.358;2022-09-06T07:13:47;7.63;;;2.10;;
72275;SDS011;61204;49.980;8.358;2022-09-06T07:16:17;5.20;;;1.92;;
72275;SDS011;61204;49.980;8.358;2022-09-06T07:18:51;5.50;;;2.25;;
72275;SDS011;61204;49.980;8.358;2022-09-06T07:21:22;7.10;;;2.10;;
72275;SDS011;61204;49.980;8.358;2022-09-06T07:23:54;7.50;;;2.33;;
72275;SDS011;61204;49.980;8.358;2022-09-06T07:26:21;3.78;;;2.20;;
72275;SDS011;61204;49.980;8.358;2022-09-06T07:31:24;5.97;;;2.10;;
72275;SDS011;61204;49.980;8.358;2022-09-06T07:33:53;8.95;;;1.85;;
72275;SDS011;61204;49.980;8.358;2022-09-06T07:36:19;4.32;;;1.83;;
72275;SDS011;61204;49.980;8.358;2022-09-06T07:38:49;5.97;;;1.80;;
72275;SDS011;61204;49.980;8.358;2022-09-06T07:41:17;6.60;;;2.05;;
72275;SDS011;61204;49.980;8.358;2022-09-06T07:43:43;3.97;;;2.10;;
72275;SDS011;61204;49.980;8.358;2022-09-06T07:46:13;6.18;;;2.15;;
72275;SDS011;61204;49.980;8.358;2022-09-06T07:48:43;7.40;;;2.28;;
72275;SDS011;61204;49.980;8.358;2022-09-06T07:51:18;5.25;;;1.95;;
72275;SDS011;61204;49.980;8.358;2022-09-06T07:53:49;2.67;;;1.50;;
72275;SDS011;61204;49.980;8.358;2022-09-06T07:56:25;5.00;;;1.98;;
72275;SDS011;61204;49.980;8.358;2022-09-06T07:59:11;3.45;;;1.85;;
72275;SDS011;61204;49.980;8.358;2022-09-06T08:02:11;3.40;;;1.13;;
72275;SDS011;61204;49.980;8.358;2022-09-06T08:05:00;4.18;;;1.42;;
72275;SDS011;61204;49.980;8.358;2022-09-06T08:08:03;3.42;;;1.35;;
72275;SDS011;61204;49.980;8.358;2022-09-06T08:11:55;2.55;;;1.05;;
72275;SDS011;61204;49.980;8.358;2022-09-06T08:19:23;2.95;;;1.20;;
72275;SDS011;61204;49.980;8.358;2022-09-06T08:22:56;1.45;;;1.13;;
72275;SDS011;61204;49.980;8.358;2022-09-06T10:26:58;2.92;;;1.25;;
72275;SDS011;61204;49.980;8.358;2022-09-06T10:32:48;4.75;;;1.00;;
72275;SDS011;61204;49.980;8.358;2022-09-06T10:35:36;2.60;;;1.25;;
72275;SDS011;61204;49.980;8.358;2022-09-06T10:44:48;2.15;;;1.00;;
72275;SDS011;61204;49.980;8.358;2022-09-06T10:48:01;2.03;;;1.30;;
72275;SDS011;61204;49.980;8.358;2022-09-06T10:54:11;1.80;;;1.27;;
72275;SDS011;61204;49.980;8.358;2022-09-06T10:56:46;3.80;;;1.30;;
72275;SDS011;61204;49.980;8.358;2022-09-06T11:02:15;2.78;;;1.45;;
72275;SDS011;61204;49.980;8.358;2022-09-06T11:05:40;1.25;;;0.98;;
72275;SDS011;61204;49.980;8.358;2022-09-06T11:08:20;1.70;;;1.10;;
72275;SDS011;61204;49.980;8.358;2022-09-06T11:11:01;2.75;;;1.02;;
72275;SDS011;61204;49.980;8.358;2022-09-06T11:13:41;1.33;;;1.20;;
72275;SDS011;61204;49.980;8.358;2022-09-06T11:16:11;2.58;;;1.17;;
72275;SDS011;61204;49.980;8.358;2022-09-06T11:19:02;1.58;;;1.30;;
72275;SDS011;61204;49.980;8.358;2022-09-06T11:25:12;2.15;;;1.30;;
72275;SDS011;61204;49.980;8.358;2022-09-06T11:28:28;2.45;;;1.30;;
72275;SDS011;61204;49.980;8.358;2022-09-06T11:31:09;2.13;;;1.20;;
72275;SDS011;61204;49.980;8.358;2022-09-06T11:34:25;1.42;;;0.80;;
72275;SDS011;61204;49.980;8.358;2022-09-06T11:37:38;2.42;;;0.90;;
72275;SDS011;61204;49.980;8.358;2022-09-06T11:41:02;3.35;;;1.58;;
72275;SDS011;61204;49.980;8.358;2022-09-06T14:56:36;5.68;;;1.30;;
72275;SDS011;61204;49.980;8.358;2022-09-06T14:59:04;2.05;;;1.13;;
72275;SDS011;61204;49.980;8.358;2022-09-06T15:01:31;2.60;;;1.05;;
72275;SDS011;61204;49.980;8.358;2022-09-06T15:04:00;5.75;;;1.20;;
72275;SDS011;61204;49.980;8.358;2022-09-06T15:06:30;2.90;;;1.42;;
72275;SDS011;61204;49.980;8.358;2022-09-06T15:09:00;2.38;;;1.13;;
72275;SDS011;61204;49.980;8.358;2022-09-06T15:11:29;2.55;;;1.13;;
72275;SDS011;61204;49.980;8.358;2022-09-06T15:16:52;9.38;;;1.88;;
72275;SDS011;61204;49.980;8.358;2022-09-06T15:19:25;6.60;;;1.52;;
72275;SDS011;61204;49.980;8.358;2022-09-06T15:21:55;4.60;;;1.60;;
72275;SDS011;61204;49.980;8.358;2022-09-06T15:24:21;3.70;;;1.17;;
72275;SDS011;61204;49.980;8.358;2022-09-06T15:26:54;4.53;;;1.50;;
72275;SDS011;61204;49.980;8.358;2022-09-06T15:29:21;3.28;;;1.40;;
72275;SDS011;61204;49.980;8.358;2022-09-06T15:31:48;2.55;;;1.45;;
72275;SDS011;61204;49.980;8.358;2022-09-06T15:34:15;4.43;;;1.25;;
72275;SDS011;61204;49.980;8.358;2022-09-06T15:36:47;2.67;;;1.42;;
72275;SDS011;61204;49.980;8.358;2022-09-06T15:39:15;5.65;;;1.45;;
72275;SDS011;61204;49.980;8.358;2022-09-06T15:41:43;9.02;;;1.40;;
72275;SDS011;61204;49.980;8.358;2022-09-06T15:44:15;5.07;;;1.30;;
72275;SDS011;61204;49.980;8.358;2022-09-06T15:46:56;3.70;;;1.40;;
72275;SDS011;61204;49.980;8.358;2022-09-06T15:49:28;3.50;;;1.35;;
72275;SDS011;61204;49.980;8.358;2022-09-06T15:51:58;4.75;;;1.70;;
72275;SDS011;61204;49.980;8.358;2022-09-06T15:54:29;2.88;;;1.60;;
72275;SDS011;61204;49.980;8.358;2022-09-06T15:57:13;3.15;;;1.50;;
72275;SDS011;61204;49.980;8.358;2022-09-06T15:59:49;2.88;;;1.50;;
72275;SDS011;61204;49.980;8.358;2022-09-06T16:02:16;2.78;;;1.48;;
72275;SDS011;61204;49.980;8.358;2022-09-06T16:04:44;3.92;;;1.17;;
72275;SDS011;61204;49.980;8.358;2022-09-06T16:07:10;3.90;;;1.10;;
72275;SDS011;61204;49.980;8.358;2022-09-06T16:09:36;7.43;;;2.00;;
72275;SDS011;61204;49.980;8.358;2022-09-06T16:12:02;6.88;;;2.20;;
72275;SDS011;61204;49.980;8.358;2022-09-06T16:14:29;16.02;;;2.08;;
72275;SDS011;61204;49.980;8.358;2022-09-06T16:16:56;9.63;;;1.70;;
72275;SDS011;61204;49.980;8.358;2022-09-06T16:19:22;17.58;;;2.50;;
72275;SDS011;61204;49.980;8.358;2022-09-06T16:21:49;12.88;;;3.45;;
72275;SDS011;61204;49.980;8.358;2022-09-06T16:24:15;36.63;;;4.80;;
72275;SDS011;61204;49.980;8.358;2022-09-06T16:26:43;15.88;;;3.58;;
72275;SDS011;61204;49.980;8.358;2022-09-06T16:29:11;9.60;;;3.13;;
72275;SDS011;61204;49.980;8.358;2022-09-06T16:31:40;23.15;;;4.45;;
72275;SDS011;61204;49.980;8.358;2022-09-06T16:34:07;17.10;;;5.80;;
72275;SDS011;61204;49.980;8.358;2022-09-06T16:36:34;23.17;;;5.35;;
72275;SDS011;61204;49.980;8.358;2022-09-06T16:39:01;15.52;;;5.00;;
72275;SDS011;61204;49.980;8.358;2022-09-06T16:44:11;12.25;;;6.65;;
72275;SDS011;61204;49.980;8.358;2022-09-06T16:46:44;9.15;;;6.22;;
72275;SDS011;61204;49.980;8.358;2022-09-06T16:49:13;9.73;;;5.45;;
72275;SDS011;61204;49.980;8.358;2022-09-06T16:51:41;11.63;;;6.13;;
72275;SDS011;61204;49.980;8.358;2022-09-06T16:54:08;8.80;;;6.18;;
72275;SDS011;61204;49.980;8.358;2022-09-06T16:56:34;11.32;;;6.28;;
72275;SDS011;61204;49.980;8.358;2022-09-06T16:59:02;7.70;;;6.35;;
72275;SDS011;61204;49.980;8.358;2022-09-06T17:01:33;9.80;;;5.53;;
72275;SDS011;61204;49.980;8.358;2022-09-06T17:04:05;11.65;;;6.00;;
72275;SDS011;61204;49.980;8.358;2022-09-06T17:06:33;9.38;;;5.22;;
72275;SDS011;61204;49.980;8.358;2022-09-06T17:09:06;6.45;;;4.10;;
72275;SDS011;61204;49.980;8.358;2022-09-06T17:11:33;8.90;;;3.72;;
72275;SDS011;61204;49.980;8.358;2022-09-06T17:14:02;9.02;;;3.88;;
72275;SDS011;61204;49.980;8.358;2022-09-06T17:16:28;5.10;;;3.00;;
72275;SDS011;61204;49.980;8.358;2022-09-06T17:19:12;8.02;;;3.90;;
72275;SDS011;61204;49.980;8.358;2022-09-06T17:21:40;8.27;;;4.43;;
72275;SDS011;61204;49.980;8.358;2022-09-06T17:24:07;6.65;;;4.28;;
72275;SDS011;61204;49.980;8.358;2022-09-06T17:26:41;9.98;;;5.15;;
72275;SDS011;61204;49.980;8.358;2022-09-06T17:29:14;12.20;;;5.13;;
72275;SDS011;61204;49.980;8.358;2022-09-06T17:31:39;11.80;;;5.18;;
72275;SDS011;61204;49.980;8.358;2022-09-06T17:34:05;9.82;;;4.90;;
72275;SDS011;61204;49.980;8.358;2022-09-06T17:36:31;7.40;;;4.63;;
72275;SDS011;61204;49.980;8.358;2022-09-06T17:39:04;7.57;;;4.50;;
72275;SDS011;61204;49.980;8.358;2022-09-06T17:41:50;4.88;;;3.60;;
72275;SDS011;61204;49.980;8.358;2022-09-06T17:44:23;7.32;;;4.00;;
72275;SDS011;61204;49.980;8.358;2022-09-06T17:46:57;8.80;;;4.25;;
72275;SDS011;61204;49.980;8.358;2022-09-06T17:49:23;8.48;;;3.42;;
72275;SDS011;61204;49.980;8.358;2022-09-06T17:51:51;4.78;;;3.70;;
72275;SDS011;61204;49.980;8.358;2022-09-06T17:54:17;5.05;;;3.50;;
72275;SDS011;61204;49.980;8.358;2022-09-06T17:56:43;5.45;;;3.97;;
72275;SDS011;61204;49.980;8.358;2022-09-06T17:59:12;11.50;;;4.53;;
72275;SDS011;61204;49.980;8.358;2022-09-06T18:01:39;6.78;;;4.18;;
72275;SDS011;61204;49.980;8.358;2022-09-06T18:04:09;10.98;;;5.00;;
72275;SDS011;61204;49.980;8.358;2022-09-06T18:06:38;11.88;;;5.38;;
72275;SDS011;61204;49.980;8.358;2022-09-06T18:09:08;7.35;;;4.10;;
72275;SDS011;61204;49.980;8.358;2022-09-06T18:11:40;12.02;;;4.18;;
72275;SDS011;61204;49.980;8.358;2022-09-06T18:14:12;6.78;;;4.30;;
72275;SDS011;61204;49.980;8.358;2022-09-06T18:16:44;7.97;;;4.07;;
72275;SDS011;61204;49.980;8.358;2022-09-06T18:19:13;8.60;;;3.75;;
72275;SDS011;61204;49.980;8.358;2022-09-06T18:21:41;4.95;;;3.20;;
72275;SDS011;61204;49.980;8.358;2022-09-06T18:24:07;4.10;;;2.92;;
72275;SDS011;61204;49.980;8.358;2022-09-06T18:26:37;4.38;;;2.35;;
72275;SDS011;61204;49.980;8.358;2022-09-06T18:29:05;3.90;;;3.03;;
72275;SDS011;61204;49.980;8.358;2022-09-06T18:31:40;3.08;;;2.50;;
72275;SDS011;61204;49.980;8.358;2022-09-06T18:34:07;3.00;;;2.55;;
72275;SDS011;61204;49.980;8.358;2022-09-06T18:36:34;3.70;;;2.72;;
72275;SDS011;61204;49.980;8.358;2022-09-06T18:39:02;3.00;;;2.47;;
72275;SDS011;61204;49.980;8.358;2022-09-06T18:41:29;2.90;;;2.10;;
72275;SDS011;61204;49.980;8.358;2022-09-06T18:44:17;2.55;;;2.17;;
72275;SDS011;61204;49.980;8.358;2022-09-06T18:46:43;3.53;;;2.03;;
72275;SDS011;61204;49.980;8.358;2022-09-06T18:49:09;5.07;;;2.42;;
72275;SDS011;61204;49.980;8.358;2022-09-06T18:51:37;3.72;;;2.42;;
72275;SDS011;61204;49.980;8.358;2022-09-06T18:54:04;4.53;;;2.60;;
72275;SDS011;61204;49.980;8.358;2022-09-06T18:56:30;7.05;;;3.63;;
72275;SDS011;61204;49.980;8.358;2022-09-06T18:58:56;7.85;;;3.42;;
72275;SDS011;61204;49.980;8.358;2022-09-06T19:01:26;5.28;;;3.15;;
72275;SDS011;61204;49.980;8.358;2022-09-06T19:03:55;5.53;;;3.45;;
72275;SDS011;61204;49.980;8.358;2022-09-06T19:06:24;7.35;;;3.13;;
72275;SDS011;61204;49.980;8.358;2022-09-06T19:08:52;6.53;;;3.10;;
72275;SDS011;61204;49.980;8.358;2022-09-06T19:11:21;5.47;;;3.30;;
72275;SDS011;61204;49.980;8.358;2022-09-06T19:13:50;7.78;;;3.63;;
72275;SDS011;61204;49.980;8.358;2022-09-06T19:16:19;7.78;;;3.78;;
72275;SDS011;61204;49.980;8.358;2022-09-06T19:18:48;8.32;;;3.13;;
72275;SDS011;61204;49.980;8.358;2022-09-06T19:21:18;4.60;;;3.25;;
72275;SDS011;61204;49.980;8.358;2022-09-06T19:23:52;6.65;;;2.97;;
72275;SDS011;61204;49.980;8.358;2022-09-06T19:26:34;6.75;;;4.85;;
72275;SDS011;61204;49.980;8.358;2022-09-06T19:29:06;7.13;;;4.95;;
72275;SDS011;61204;49.980;8.358;2022-09-06T19:34:11;9.73;;;4.20;;
72275;SDS011;61204;49.980;8.358;2022-09-06T19:36:39;6.45;;;3.38;;
72275;SDS011;61204;49.980;8.358;2022-09-06T19:39:06;7.13;;;3.55;;
72275;SDS011;61204;49.980;8.358;2022-09-06T19:41:38;6.22;;;3.88;;
72275;SDS011;61204;49.980;8.358;2022-09-06T19:44:09;6.68;;;4.40;;
72275;SDS011;61204;49.980;8.358;2022-09-06T19:46:36;7.28;;;4.72;;
72275;SDS011;61204;49.980;8.358;2022-09-06T19:49:03;5.28;;;4.32;;
72275;SDS011;61204;49.980;8.358;2022-09-06T19:51:32;7.75;;;4.60;;
72275;SDS011;61204;49.980;8.358;2022-09-06T19:54:00;7.50;;;5.18;;
72275;SDS011;61204;49.980;8.358;2022-09-06T19:56:27;5.45;;;4.40;;
72275;SDS011;61204;49.980;8.358;2022-09-06T19:59:07;8.95;;;3.80;;
72275;SDS011;61204;49.980;8.358;2022-09-06T20:01:43;7.97;;;3.97;;
72275;SDS011;61204;49.980;8.358;2022-09-06T20:04:12;6.88;;;4.97;;
72275;SDS011;61204;49.980;8.358;2022-09-06T20:06:39;9.35;;;4.30;;
72275;SDS011;61204;49.980;8.358;2022-09-06T20:09:07;9.27;;;5.35;;
72275;SDS011;61204;49.980;8.358;2022-09-06T20:11:36;6.38;;;4.10;;
72275;SDS011;61204;49.980;8.358;2022-09-06T20:14:04;7.35;;;4.75;;
72275;SDS011;61204;49.980;8.358;2022-09-06T20:16:33;5.38;;;4.45;;
72275;SDS011;61204;49.980;8.358;2022-09-06T20:18:59;5.45;;;4.70;;
72275;SDS011;61204;49.980;8.358;2022-09-06T20:21:26;5.78;;;5.00;;
72275;SDS011;61204;49.980;8.358;2022-09-06T20:23:55;7.55;;;5.00;;
72275;SDS011;61204;49.980;8.358;2022-09-06T20:26:27;8.77;;;5.00;;
72275;SDS011;61204;49.980;8.358;2022-09-06T20:28:58;7.10;;;5.40;;
72275;SDS011;61204;49.980;8.358;2022-09-06T20:31:27;7.65;;;5.47;;
72275;SDS011;61204;49.980;8.358;2022-09-06T20:33:57;8.13;;;5.57;;
72275;SDS011;61204;49.980;8.358;2022-09-06T20:36:25;9.30;;;5.93;;
72275;SDS011;61204;49.980;8.358;2022-09-06T20:38:51;7.95;;;5.20;;
72275;SDS011;61204;49.980;8.358;2022-09-06T20:41:19;10.13;;;6.00;;
72275;SDS011;61204;49.980;8.358;2022-09-06T20:43:51;10.23;;;5.53;;
72275;SDS011;61204;49.980;8.358;2022-09-06T20:46:22;7.75;;;6.57;;
72275;SDS011;61204;49.980;8.358;2022-09-06T20:48:52;9.50;;;5.78;;
72275;SDS011;61204;49.980;8.358;2022-09-06T20:51:24;8.93;;;5.63;;
72275;SDS011;61204;49.980;8.358;2022-09-06T20:53:51;7.20;;;5.68;;
72275;SDS011;61204;49.980;8.358;2022-09-06T20:56:21;10.15;;;6.38;;
72275;SDS011;61204;49.980;8.358;2022-09-06T20:58:54;9.63;;;6.78;;
72275;SDS011;61204;49.980;8.358;2022-09-06T21:01:25;9.32;;;6.93;;
72275;SDS011;61204;49.980;8.358;2022-09-06T21:03:58;10.98;;;6.65;;
72275;SDS011;61204;49.980;8.358;2022-09-06T21:06:28;8.07;;;6.82;;
72275;SDS011;61204;49.980;8.358;2022-09-06T21:09:00;9.32;;;6.93;;
72275;SDS011;61204;49.980;8.358;2022-09-06T21:11:36;12.30;;;7.00;;
72275;SDS011;61204;49.980;8.358;2022-09-06T21:14:03;11.40;;;7.07;;
72275;SDS011;61204;49.980;8.358;2022-09-06T21:16:30;11.55;;;7.05;;
72275;SDS011;61204;49.980;8.358;2022-09-06T21:18:58;8.90;;;6.28;;
72275;SDS011;61204;49.980;8.358;2022-09-06T21:21:30;11.18;;;7.03;;
72275;SDS011;61204;49.980;8.358;2022-09-06T21:24:01;10.98;;;6.85;;
72275;SDS011;61204;49.980;8.358;2022-09-06T21:26:31;10.52;;;6.38;;
72275;SDS011;61204;49.980;8.358;2022-09-06T21:28:58;10.00;;;6.60;;
72275;SDS011;61204;49.980;8.358;2022-09-06T21:31:25;11.10;;;6.55;;
72275;SDS011;61204;49.980;8.358;2022-09-06T21:33:59;9.60;;;6.40;;
72275;SDS011;61204;49.980;8.358;2022-09-06T21:36:30;11.38;;;5.72;;
72275;SDS011;61204;49.980;8.358;2022-09-06T21:39:02;6.47;;;5.32;;
72275;SDS011;61204;49.980;8.358;2022-09-06T21:41:36;9.63;;;4.85;;
72275;SDS011;61204;49.980;8.358;2022-09-06T21:44:05;6.72;;;4.70;;